sensor_id;sensor_type;location;lat;lon;timestamp;P1;durP1;ratioP1;P2;durP2;ratioP2
1977;SDS011;989;53.016;8.346;2022-10-22T00:01:15;53.63;;;22.13;;
1977;SDS011;989;53.016;8.346;2022-10-22T00:03:41;50.93;;;21.30;;
1977;SDS011;989;53.016;8.346;2022-10-22T00:06:06;53.33;;;22.90;;
1977;SDS011;989;53.016;8.346;2022-10-22T00:08:32;59.40;;;23.17;;
1977;SDS011;989;53.016;8.346;2022-10-22T00:10:58;55.23;;;23.73;;
1977;SDS011;989;53.016;8.346;2022-10-22T00:13:32;60.10;;;23.97;;
1977;SDS011;989;53.016;8.346;2022-10-22T00:15:57;60.10;;;22.53;;
1977;SDS011;989;53.016;8.346;2022-10-22T00:18:23;48.53;;;22.60;;
1977;SDS011;989;53.016;8.346;2022-10-22T00:20:49;48.53;;;22.37;;
1977;SDS011;989;53.016;8.346;2022-10-22T00:23:14;51.33;;;21.67;;
1977;SDS011;989;53.016;8.346;2022-10-22T00:25:40;51.67;;;21.43;;
1977;SDS011;989;53.016;8.346;2022-10-22T00:28:06;63.70;;;23.30;;
1977;SDS011;989;53.016;8.346;2022-10-22T00:30:31;51.50;;;22.00;;
1977;SDS011;989;53.016;8.346;2022-10-22T00:32:57;61.57;;;23.67;;
1977;SDS011;989;53.016;8.346;2022-10-22T00:35:23;49.63;;;21.87;;
1977;SDS011;989;53.016;8.346;2022-10-22T00:37:48;61.47;;;23.90;;
1977;SDS011;989;53.016;8.346;2022-10-22T00:40:14;54.13;;;21.60;;
1977;SDS011;989;53.016;8.346;2022-10-22T00:42:40;48.47;;;21.50;;
1977;SDS011;989;53.016;8.346;2022-10-22T00:45:09;54.77;;;23.20;;
1977;SDS011;989;53.016;8.346;2022-10-22T00:50:46;60.33;;;24.37;;
1977;SDS011;989;53.016;8.346;2022-10-22T00:53:26;58.33;;;23.40;;
1977;SDS011;989;53.016;8.346;2022-10-22T00:55:59;43.80;;;22.43;;
1977;SDS011;989;53.016;8.346;2022-10-22T00:58:27;55.53;;;23.47;;
1977;SDS011;989;53.016;8.346;2022-10-22T01:00:55;66.63;;;23.60;;
1977;SDS011;989;53.016;8.346;2022-10-22T01:03:22;52.53;;;22.70;;
1977;SDS011;989;53.016;8.346;2022-10-22T01:05:57;55.30;;;23.87;;
1977;SDS011;989;53.016;8.346;2022-10-22T01:08:45;56.57;;;23.40;;
1977;SDS011;989;53.016;8.346;2022-10-22T01:14:37;61.93;;;23.63;;
1977;SDS011;989;53.016;8.346;2022-10-22T01:21:18;68.60;;;23.80;;
1977;SDS011;989;53.016;8.346;2022-10-22T01:24:10;54.13;;;24.07;;
1977;SDS011;989;53.016;8.346;2022-10-22T01:30:06;52.53;;;22.77;;
1977;SDS011;989;53.016;8.346;2022-10-22T01:32:38;52.57;;;21.90;;
1977;SDS011;989;53.016;8.346;2022-10-22T01:35:11;52.50;;;24.20;;
1977;SDS011;989;53.016;8.346;2022-10-22T01:37:43;78.40;;;26.27;;
1977;SDS011;989;53.016;8.346;2022-10-22T01:40:18;57.40;;;23.50;;
1977;SDS011;989;53.016;8.346;2022-10-22T01:42:55;69.73;;;25.07;;
1977;SDS011;989;53.016;8.346;2022-10-22T01:45:27;76.83;;;25.30;;
1977;SDS011;989;53.016;8.346;2022-10-22T01:48:03;56.90;;;22.50;;
1977;SDS011;989;53.016;8.346;2022-10-22T01:57:18;47.37;;;21.90;;
1977;SDS011;989;53.016;8.346;2022-10-22T02:00:08;74.03;;;22.13;;
1977;SDS011;989;53.016;8.346;2022-10-22T02:02:40;123.57;;;24.00;;
1977;SDS011;989;53.016;8.346;2022-10-22T02:08:23;73.07;;;21.10;;
1977;SDS011;989;53.016;8.346;2022-10-22T02:10:55;70.67;;;20.93;;
1977;SDS011;989;53.016;8.346;2022-10-22T02:13:29;106.03;;;21.80;;
1977;SDS011;989;53.016;8.346;2022-10-22T02:16:08;49.17;;;21.70;;
1977;SDS011;989;53.016;8.346;2022-10-22T02:18:40;54.30;;;21.97;;
1977;SDS011;989;53.016;8.346;2022-10-22T02:21:09;61.13;;;24.10;;
1977;SDS011;989;53.016;8.346;2022-10-22T02:23:35;67.83;;;24.20;;
1977;SDS011;989;53.016;8.346;2022-10-22T02:26:02;60.60;;;26.10;;
1977;SDS011;989;53.016;8.346;2022-10-22T02:28:49;67.43;;;23.90;;
1977;SDS011;989;53.016;8.346;2022-10-22T02:31:23;52.03;;;25.30;;
1977;SDS011;989;53.016;8.346;2022-10-22T02:33:55;53.43;;;23.47;;
1977;SDS011;989;53.016;8.346;2022-10-22T02:36:27;73.77;;;26.83;;
1977;SDS011;989;53.016;8.346;2022-10-22T02:38:53;68.83;;;23.87;;
1977;SDS011;989;53.016;8.346;2022-10-22T02:41:19;65.47;;;23.83;;
1977;SDS011;989;53.016;8.346;2022-10-22T02:43:50;74.13;;;24.87;;
1977;SDS011;989;53.016;8.346;2022-10-22T02:46:19;56.17;;;23.20;;
1977;SDS011;989;53.016;8.346;2022-10-22T02:48:45;67.77;;;27.30;;
1977;SDS011;989;53.016;8.346;2022-10-22T02:51:11;66.60;;;24.63;;
1977;SDS011;989;53.016;8.346;2022-10-22T02:53:36;75.63;;;26.27;;
1977;SDS011;989;53.016;8.346;2022-10-22T02:56:02;65.47;;;24.20;;
1977;SDS011;989;53.016;8.346;2022-10-22T02:58:28;49.57;;;22.90;;
1977;SDS011;989;53.016;8.346;2022-10-22T03:00:54;65.50;;;24.70;;
1977;SDS011;989;53.016;8.346;2022-10-22T03:03:20;50.17;;;22.10;;
1977;SDS011;989;53.016;8.346;2022-10-22T03:05:45;68.97;;;24.30;;
1977;SDS011;989;53.016;8.346;2022-10-22T03:08:11;50.23;;;24.40;;
1977;SDS011;989;53.016;8.346;2022-10-22T03:10:37;47.53;;;21.87;;
1977;SDS011;989;53.016;8.346;2022-10-22T03:13:02;50.67;;;23.27;;
1977;SDS011;989;53.016;8.346;2022-10-22T03:15:28;48.53;;;22.40;;
1977;SDS011;989;53.016;8.346;2022-10-22T03:17:53;58.60;;;24.33;;
1977;SDS011;989;53.016;8.346;2022-10-22T03:20:19;59.57;;;23.90;;
1977;SDS011;989;53.016;8.346;2022-10-22T03:22:45;61.00;;;23.93;;
1977;SDS011;989;53.016;8.346;2022-10-22T03:25:12;56.60;;;23.00;;
1977;SDS011;989;53.016;8.346;2022-10-22T03:27:43;74.67;;;24.30;;
1977;SDS011;989;53.016;8.346;2022-10-22T03:30:10;62.93;;;22.83;;
1977;SDS011;989;53.016;8.346;2022-10-22T03:32:36;50.20;;;21.17;;
1977;SDS011;989;53.016;8.346;2022-10-22T03:35:02;58.10;;;24.83;;
1977;SDS011;989;53.016;8.346;2022-10-22T03:37:29;61.40;;;24.37;;
1977;SDS011;989;53.016;8.346;2022-10-22T03:39:56;52.93;;;23.57;;
1977;SDS011;989;53.016;8.346;2022-10-22T03:42:22;54.43;;;20.90;;
1977;SDS011;989;53.016;8.346;2022-10-22T03:44:48;56.50;;;23.80;;
1977;SDS011;989;53.016;8.346;2022-10-22T03:47:14;63.23;;;22.63;;
1977;SDS011;989;53.016;8.346;2022-10-22T03:49:40;54.50;;;22.40;;
1977;SDS011;989;53.016;8.346;2022-10-22T03:52:12;45.13;;;22.50;;
1977;SDS011;989;53.016;8.346;2022-10-22T03:54:38;64.77;;;22.50;;
1977;SDS011;989;53.016;8.346;2022-10-22T03:57:06;50.27;;;21.53;;
1977;SDS011;989;53.016;8.346;2022-10-22T03:59:39;49.97;;;23.87;;
1977;SDS011;989;53.016;8.346;2022-10-22T04:02:07;66.77;;;24.60;;
1977;SDS011;989;53.016;8.346;2022-10-22T04:04:34;54.37;;;22.77;;
1977;SDS011;989;53.016;8.346;2022-10-22T04:07:00;63.60;;;23.67;;
1977;SDS011;989;53.016;8.346;2022-10-22T04:09:25;55.17;;;23.40;;
1977;SDS011;989;53.016;8.346;2022-10-22T04:11:51;74.07;;;24.37;;
1977;SDS011;989;53.016;8.346;2022-10-22T04:14:16;60.20;;;21.80;;
1977;SDS011;989;53.016;8.346;2022-10-22T04:16:42;64.00;;;24.30;;
1977;SDS011;989;53.016;8.346;2022-10-22T04:19:08;41.70;;;19.40;;
1977;SDS011;989;53.016;8.346;2022-10-22T04:21:34;55.13;;;23.23;;
1977;SDS011;989;53.016;8.346;2022-10-22T04:23:59;61.00;;;23.87;;
1977;SDS011;989;53.016;8.346;2022-10-22T04:26:25;66.73;;;23.43;;
1977;SDS011;989;53.016;8.346;2022-10-22T04:28:51;49.90;;;21.67;;
1977;SDS011;989;53.016;8.346;2022-10-22T04:31:18;53.07;;;24.80;;
1977;SDS011;989;53.016;8.346;2022-10-22T04:33:51;49.60;;;22.97;;
1977;SDS011;989;53.016;8.346;2022-10-22T04:36:22;51.67;;;22.50;;
1977;SDS011;989;53.016;8.346;2022-10-22T04:38:56;61.97;;;25.40;;
1977;SDS011;989;53.016;8.346;2022-10-22T04:41:30;61.80;;;25.90;;
1977;SDS011;989;53.016;8.346;2022-10-22T04:43:59;62.37;;;25.50;;
1977;SDS011;989;53.016;8.346;2022-10-22T04:46:26;60.70;;;25.10;;
1977;SDS011;989;53.016;8.346;2022-10-22T04:48:55;57.43;;;22.40;;
1977;SDS011;989;53.016;8.346;2022-10-22T04:51:21;54.37;;;22.90;;
1977;SDS011;989;53.016;8.346;2022-10-22T04:53:48;53.77;;;24.37;;
1977;SDS011;989;53.016;8.346;2022-10-22T04:56:16;61.07;;;26.20;;
1977;SDS011;989;53.016;8.346;2022-10-22T04:58:52;59.27;;;24.53;;
1977;SDS011;989;53.016;8.346;2022-10-22T05:01:27;60.63;;;23.70;;
1977;SDS011;989;53.016;8.346;2022-10-22T05:04:02;46.90;;;23.40;;
1977;SDS011;989;53.016;8.346;2022-10-22T05:06:30;60.70;;;25.60;;
1977;SDS011;989;53.016;8.346;2022-10-22T05:08:58;66.37;;;27.47;;
1977;SDS011;989;53.016;8.346;2022-10-22T05:11:45;90.93;;;25.50;;
1977;SDS011;989;53.016;8.346;2022-10-22T05:14:14;66.43;;;23.37;;
1977;SDS011;989;53.016;8.346;2022-10-22T05:16:44;75.03;;;26.20;;
1977;SDS011;989;53.016;8.346;2022-10-22T05:19:16;75.17;;;25.70;;
1977;SDS011;989;53.016;8.346;2022-10-22T05:21:51;65.97;;;23.63;;
1977;SDS011;989;53.016;8.346;2022-10-22T05:24:19;77.47;;;25.20;;
1977;SDS011;989;53.016;8.346;2022-10-22T05:26:47;62.43;;;25.03;;
1977;SDS011;989;53.016;8.346;2022-10-22T05:29:14;70.70;;;25.40;;
1977;SDS011;989;53.016;8.346;2022-10-22T05:31:40;77.23;;;24.40;;
1977;SDS011;989;53.016;8.346;2022-10-22T05:34:06;57.23;;;24.20;;
1977;SDS011;989;53.016;8.346;2022-10-22T05:36:31;63.00;;;24.27;;
1977;SDS011;989;53.016;8.346;2022-10-22T05:38:57;65.53;;;24.37;;
1977;SDS011;989;53.016;8.346;2022-10-22T05:41:23;64.23;;;23.17;;
1977;SDS011;989;53.016;8.346;2022-10-22T05:43:53;69.60;;;24.87;;
1977;SDS011;989;53.016;8.346;2022-10-22T05:46:21;94.57;;;22.90;;
1977;SDS011;989;53.016;8.346;2022-10-22T05:48:49;61.43;;;23.10;;
1977;SDS011;989;53.016;8.346;2022-10-22T05:51:17;55.30;;;21.87;;
1977;SDS011;989;53.016;8.346;2022-10-22T05:53:43;78.47;;;24.57;;
1977;SDS011;989;53.016;8.346;2022-10-22T05:56:13;59.17;;;24.47;;
1977;SDS011;989;53.016;8.346;2022-10-22T05:58:40;59.90;;;22.87;;
1977;SDS011;989;53.016;8.346;2022-10-22T06:01:15;58.33;;;23.40;;
1977;SDS011;989;53.016;8.346;2022-10-22T06:03:45;57.53;;;23.20;;
1977;SDS011;989;53.016;8.346;2022-10-22T06:08:52;61.83;;;24.87;;
1977;SDS011;989;53.016;8.346;2022-10-22T06:11:20;58.97;;;24.60;;
1977;SDS011;989;53.016;8.346;2022-10-22T06:13:47;91.37;;;24.43;;
1977;SDS011;989;53.016;8.346;2022-10-22T06:16:14;58.63;;;24.80;;
1977;SDS011;989;53.016;8.346;2022-10-22T06:18:40;56.00;;;23.13;;
1977;SDS011;989;53.016;8.346;2022-10-22T06:21:07;68.50;;;25.07;;
1977;SDS011;989;53.016;8.346;2022-10-22T06:23:38;60.90;;;24.27;;
1977;SDS011;989;53.016;8.346;2022-10-22T06:26:05;58.03;;;24.17;;
1977;SDS011;989;53.016;8.346;2022-10-22T06:28:32;77.13;;;25.77;;
1977;SDS011;989;53.016;8.346;2022-10-22T06:30:59;65.07;;;22.13;;
1977;SDS011;989;53.016;8.346;2022-10-22T06:33:26;57.47;;;24.73;;
1977;SDS011;989;53.016;8.346;2022-10-22T06:35:53;62.07;;;24.00;;
1977;SDS011;989;53.016;8.346;2022-10-22T06:38:19;66.30;;;25.73;;
1977;SDS011;989;53.016;8.346;2022-10-22T06:40:45;55.80;;;24.90;;
1977;SDS011;989;53.016;8.346;2022-10-22T06:43:11;66.47;;;27.10;;
1977;SDS011;989;53.016;8.346;2022-10-22T06:45:38;58.60;;;25.80;;
1977;SDS011;989;53.016;8.346;2022-10-22T06:48:03;79.60;;;28.40;;
1977;SDS011;989;53.016;8.346;2022-10-22T06:50:29;70.47;;;25.10;;
1977;SDS011;989;53.016;8.346;2022-10-22T06:52:56;63.83;;;26.70;;
1977;SDS011;989;53.016;8.346;2022-10-22T06:55:21;65.33;;;28.57;;
1977;SDS011;989;53.016;8.346;2022-10-22T06:57:47;58.03;;;24.67;;
1977;SDS011;989;53.016;8.346;2022-10-22T07:00:13;61.93;;;23.87;;
1977;SDS011;989;53.016;8.346;2022-10-22T07:02:39;57.10;;;25.70;;
1977;SDS011;989;53.016;8.346;2022-10-22T07:05:05;60.00;;;24.00;;
1977;SDS011;989;53.016;8.346;2022-10-22T07:07:31;58.57;;;25.57;;
1977;SDS011;989;53.016;8.346;2022-10-22T07:09:57;59.80;;;23.80;;
1977;SDS011;989;53.016;8.346;2022-10-22T07:12:22;63.13;;;22.50;;
1977;SDS011;989;53.016;8.346;2022-10-22T07:14:48;56.00;;;25.60;;
1977;SDS011;989;53.016;8.346;2022-10-22T07:17:14;53.47;;;23.50;;
1977;SDS011;989;53.016;8.346;2022-10-22T07:19:40;56.87;;;22.73;;
1977;SDS011;989;53.016;8.346;2022-10-22T07:22:05;49.00;;;21.70;;
1977;SDS011;989;53.016;8.346;2022-10-22T07:24:31;52.90;;;23.40;;
1977;SDS011;989;53.016;8.346;2022-10-22T07:26:57;54.17;;;23.80;;
1977;SDS011;989;53.016;8.346;2022-10-22T07:29:23;52.07;;;24.23;;
1977;SDS011;989;53.016;8.346;2022-10-22T07:31:48;47.80;;;21.10;;
1977;SDS011;989;53.016;8.346;2022-10-22T07:34:14;59.27;;;22.90;;
1977;SDS011;989;53.016;8.346;2022-10-22T07:36:40;48.43;;;23.90;;
1977;SDS011;989;53.016;8.346;2022-10-22T07:39:05;52.10;;;21.40;;
1977;SDS011;989;53.016;8.346;2022-10-22T07:41:31;51.50;;;22.03;;
1977;SDS011;989;53.016;8.346;2022-10-22T07:43:57;61.87;;;23.77;;
1977;SDS011;989;53.016;8.346;2022-10-22T07:46:23;48.37;;;20.80;;
1977;SDS011;989;53.016;8.346;2022-10-22T07:48:50;61.40;;;23.80;;
1977;SDS011;989;53.016;8.346;2022-10-22T07:51:15;55.57;;;22.17;;
1977;SDS011;989;53.016;8.346;2022-10-22T07:53:41;54.57;;;24.17;;
1977;SDS011;989;53.016;8.346;2022-10-22T07:56:07;44.73;;;21.27;;
1977;SDS011;989;53.016;8.346;2022-10-22T07:58:33;49.03;;;23.90;;
1977;SDS011;989;53.016;8.346;2022-10-22T08:01:00;52.03;;;22.53;;
1977;SDS011;989;53.016;8.346;2022-10-22T08:03:27;48.73;;;25.37;;
1977;SDS011;989;53.016;8.346;2022-10-22T08:05:53;66.27;;;24.90;;
1977;SDS011;989;53.016;8.346;2022-10-22T08:08:20;53.60;;;25.53;;
1977;SDS011;989;53.016;8.346;2022-10-22T08:10:47;54.30;;;23.70;;
1977;SDS011;989;53.016;8.346;2022-10-22T08:13:16;57.33;;;23.50;;
1977;SDS011;989;53.016;8.346;2022-10-22T08:15:43;65.47;;;24.10;;
1977;SDS011;989;53.016;8.346;2022-10-22T08:18:10;72.93;;;24.67;;
1977;SDS011;989;53.016;8.346;2022-10-22T08:20:36;50.83;;;23.50;;
1977;SDS011;989;53.016;8.346;2022-10-22T08:23:02;53.80;;;24.83;;
1977;SDS011;989;53.016;8.346;2022-10-22T08:25:28;62.10;;;24.60;;
1977;SDS011;989;53.016;8.346;2022-10-22T08:27:53;59.40;;;25.27;;
1977;SDS011;989;53.016;8.346;2022-10-22T08:30:19;52.83;;;24.47;;
1977;SDS011;989;53.016;8.346;2022-10-22T08:32:45;51.87;;;25.73;;
1977;SDS011;989;53.016;8.346;2022-10-22T08:35:11;43.90;;;25.37;;
1977;SDS011;989;53.016;8.346;2022-10-22T08:37:36;48.50;;;24.47;;
1977;SDS011;989;53.016;8.346;2022-10-22T08:40:03;52.90;;;23.80;;
1977;SDS011;989;53.016;8.346;2022-10-22T08:42:44;49.80;;;24.10;;
1977;SDS011;989;53.016;8.346;2022-10-22T08:45:53;61.53;;;25.30;;
1977;SDS011;989;53.016;8.346;2022-10-22T08:48:46;40.70;;;22.40;;
1977;SDS011;989;53.016;8.346;2022-10-22T08:51:18;45.00;;;21.73;;
1977;SDS011;989;53.016;8.346;2022-10-22T08:56:43;53.80;;;24.90;;
1977;SDS011;989;53.016;8.346;2022-10-22T08:59:23;52.20;;;23.50;;
1977;SDS011;989;53.016;8.346;2022-10-22T09:02:01;49.70;;;23.00;;
1977;SDS011;989;53.016;8.346;2022-10-22T09:05:05;40.63;;;21.63;;
1977;SDS011;989;53.016;8.346;2022-10-22T09:07:45;35.50;;;20.47;;
1977;SDS011;989;53.016;8.346;2022-10-22T09:10:15;40.77;;;21.37;;
1977;SDS011;989;53.016;8.346;2022-10-22T09:12:43;43.70;;;18.70;;
1977;SDS011;989;53.016;8.346;2022-10-22T09:15:15;39.53;;;17.87;;
1977;SDS011;989;53.016;8.346;2022-10-22T09:21:16;24.17;;;14.63;;
1977;SDS011;989;53.016;8.346;2022-10-22T09:26:27;26.63;;;12.60;;
1977;SDS011;989;53.016;8.346;2022-10-22T09:28:53;23.20;;;13.20;;
1977;SDS011;989;53.016;8.346;2022-10-22T09:31:25;30.07;;;10.37;;
1977;SDS011;989;53.016;8.346;2022-10-22T09:33:54;18.63;;;8.63;;
1977;SDS011;989;53.016;8.346;2022-10-22T09:36:21;17.83;;;9.87;;
1977;SDS011;989;53.016;8.346;2022-10-22T09:38:51;35.17;;;8.63;;
1977;SDS011;989;53.016;8.346;2022-10-22T09:41:18;19.00;;;8.23;;
1977;SDS011;989;53.016;8.346;2022-10-22T09:43:48;13.30;;;8.07;;
1977;SDS011;989;53.016;8.346;2022-10-22T09:46:15;12.03;;;6.90;;
1977;SDS011;989;53.016;8.346;2022-10-22T09:49:01;13.77;;;6.17;;
1977;SDS011;989;53.016;8.346;2022-10-22T09:51:45;15.33;;;6.40;;
1977;SDS011;989;53.016;8.346;2022-10-22T09:56:57;14.80;;;5.83;;
1977;SDS011;989;53.016;8.346;2022-10-22T09:59:47;15.43;;;5.67;;
1977;SDS011;989;53.016;8.346;2022-10-22T10:04:54;21.27;;;6.47;;
1977;SDS011;989;53.016;8.346;2022-10-22T10:07:26;12.30;;;5.90;;
1977;SDS011;989;53.016;8.346;2022-10-22T10:09:55;15.77;;;6.63;;
1977;SDS011;989;53.016;8.346;2022-10-22T10:26:53;14.20;;;5.67;;
1977;SDS011;989;53.016;8.346;2022-10-22T10:37:42;9.53;;;4.37;;
1977;SDS011;989;53.016;8.346;2022-10-22T10:49:12;11.13;;;4.80;;
1977;SDS011;989;53.016;8.346;2022-10-22T11:00:24;11.93;;;3.97;;
1977;SDS011;989;53.016;8.346;2022-10-22T11:03:11;16.37;;;4.90;;
1977;SDS011;989;53.016;8.346;2022-10-22T11:05:58;12.93;;;4.70;;
1977;SDS011;989;53.016;8.346;2022-10-22T11:08:32;14.60;;;4.57;;
1977;SDS011;989;53.016;8.346;2022-10-22T11:11:18;11.80;;;4.70;;
1977;SDS011;989;53.016;8.346;2022-10-22T11:13:55;14.40;;;4.50;;
1977;SDS011;989;53.016;8.346;2022-10-22T11:27:54;11.23;;;4.10;;
1977;SDS011;989;53.016;8.346;2022-10-22T11:30:26;11.47;;;5.10;;
1977;SDS011;989;53.016;8.346;2022-10-22T11:32:59;13.60;;;4.20;;
1977;SDS011;989;53.016;8.346;2022-10-22T11:35:36;15.70;;;5.97;;
1977;SDS011;989;53.016;8.346;2022-10-22T11:38:05;9.83;;;4.20;;
1977;SDS011;989;53.016;8.346;2022-10-22T11:40:38;8.73;;;3.33;;
1977;SDS011;989;53.016;8.346;2022-10-22T11:46:38;10.67;;;3.50;;
1977;SDS011;989;53.016;8.346;2022-10-22T11:49:21;13.03;;;4.13;;
1977;SDS011;989;53.016;8.346;2022-10-22T11:52:22;10.17;;;4.53;;
1977;SDS011;989;53.016;8.346;2022-10-22T11:54:53;10.17;;;3.40;;
1977;SDS011;989;53.016;8.346;2022-10-22T11:57:25;6.70;;;3.30;;
1977;SDS011;989;53.016;8.346;2022-10-22T11:59:59;13.63;;;3.80;;
1977;SDS011;989;53.016;8.346;2022-10-22T12:02:40;13.00;;;4.20;;
1977;SDS011;989;53.016;8.346;2022-10-22T12:05:31;9.87;;;3.83;;
1977;SDS011;989;53.016;8.346;2022-10-22T12:08:05;12.10;;;3.23;;
1977;SDS011;989;53.016;8.346;2022-10-22T12:10:50;21.50;;;4.47;;
1977;SDS011;989;53.016;8.346;2022-10-22T12:13:32;10.83;;;4.13;;
1977;SDS011;989;53.016;8.346;2022-10-22T12:16:33;9.97;;;3.90;;
1977;SDS011;989;53.016;8.346;2022-10-22T12:19:11;23.40;;;4.20;;
1977;SDS011;989;53.016;8.346;2022-10-22T12:21:46;13.50;;;3.97;;
1977;SDS011;989;53.016;8.346;2022-10-22T12:24:24;15.60;;;4.70;;
1977;SDS011;989;53.016;8.346;2022-10-22T12:26:56;23.60;;;5.40;;
1977;SDS011;989;53.016;8.346;2022-10-22T12:29:21;14.30;;;4.37;;
1977;SDS011;989;53.016;8.346;2022-10-22T12:31:49;16.30;;;3.97;;
1977;SDS011;989;53.016;8.346;2022-10-22T12:34:20;27.73;;;4.10;;
1977;SDS011;989;53.016;8.346;2022-10-22T12:36:49;10.63;;;3.70;;
1977;SDS011;989;53.016;8.346;2022-10-22T12:39:18;14.50;;;4.20;;
1977;SDS011;989;53.016;8.346;2022-10-22T12:41:51;16.43;;;4.43;;
1977;SDS011;989;53.016;8.346;2022-10-22T12:44:19;11.83;;;3.80;;
1977;SDS011;989;53.016;8.346;2022-10-22T12:46:45;22.17;;;5.20;;
1977;SDS011;989;53.016;8.346;2022-10-22T12:49:17;11.70;;;5.20;;
1977;SDS011;989;53.016;8.346;2022-10-22T12:51:46;15.30;;;4.30;;
1977;SDS011;989;53.016;8.346;2022-10-22T12:54:19;13.10;;;5.70;;
1977;SDS011;989;53.016;8.346;2022-10-22T12:56:52;17.23;;;4.57;;
1977;SDS011;989;53.016;8.346;2022-10-22T12:59:20;8.90;;;3.93;;
1977;SDS011;989;53.016;8.346;2022-10-22T13:01:51;7.33;;;4.50;;
1977;SDS011;989;53.016;8.346;2022-10-22T13:04:20;13.03;;;4.37;;
1977;SDS011;989;53.016;8.346;2022-10-22T13:07:15;8.50;;;4.30;;
1977;SDS011;989;53.016;8.346;2022-10-22T13:09:47;7.17;;;4.43;;
1977;SDS011;989;53.016;8.346;2022-10-22T13:12:26;12.03;;;4.70;;
1977;SDS011;989;53.016;8.346;2022-10-22T13:17:46;7.90;;;4.60;;
1977;SDS011;989;53.016;8.346;2022-10-22T13:20:15;9.30;;;4.30;;
1977;SDS011;989;53.016;8.346;2022-10-22T13:22:56;18.90;;;4.30;;
1977;SDS011;989;53.016;8.346;2022-10-22T13:25:34;11.40;;;4.43;;
1977;SDS011;989;53.016;8.346;2022-10-22T13:30:35;12.17;;;4.93;;
1977;SDS011;989;53.016;8.346;2022-10-22T13:36:02;10.97;;;4.47;;
1977;SDS011;989;53.016;8.346;2022-10-22T13:38:29;14.87;;;4.60;;
1977;SDS011;989;53.016;8.346;2022-10-22T13:40:55;9.10;;;4.40;;
1977;SDS011;989;53.016;8.346;2022-10-22T13:43:21;7.37;;;4.50;;
1977;SDS011;989;53.016;8.346;2022-10-22T13:45:48;9.40;;;4.63;;
1977;SDS011;989;53.016;8.346;2022-10-22T13:48:19;9.93;;;4.23;;
1977;SDS011;989;53.016;8.346;2022-10-22T13:50:47;9.60;;;4.50;;
1977;SDS011;989;53.016;8.346;2022-10-22T13:53:14;9.43;;;4.20;;
1977;SDS011;989;53.016;8.346;2022-10-22T13:55:43;9.10;;;4.47;;
1977;SDS011;989;53.016;8.346;2022-10-22T13:58:14;13.40;;;5.07;;
1977;SDS011;989;53.016;8.346;2022-10-22T14:00:43;10.50;;;4.10;;
1977;SDS011;989;53.016;8.346;2022-10-22T14:03:16;11.20;;;3.77;;
1977;SDS011;989;53.016;8.346;2022-10-22T14:05:46;9.87;;;3.80;;
1977;SDS011;989;53.016;8.346;2022-10-22T14:08:13;8.80;;;4.10;;
1977;SDS011;989;53.016;8.346;2022-10-22T14:10:43;9.47;;;4.37;;
1977;SDS011;989;53.016;8.346;2022-10-22T14:13:12;6.17;;;3.30;;
1977;SDS011;989;53.016;8.346;2022-10-22T14:15:40;13.97;;;4.30;;
1977;SDS011;989;53.016;8.346;2022-10-22T14:18:07;35.03;;;4.63;;
1977;SDS011;989;53.016;8.346;2022-10-22T14:20:41;14.20;;;4.57;;
1977;SDS011;989;53.016;8.346;2022-10-22T14:23:19;11.23;;;4.00;;
1977;SDS011;989;53.016;8.346;2022-10-22T14:25:48;13.70;;;3.67;;
1977;SDS011;989;53.016;8.346;2022-10-22T14:28:15;16.03;;;3.10;;
1977;SDS011;989;53.016;8.346;2022-10-22T14:30:41;10.83;;;3.97;;
1977;SDS011;989;53.016;8.346;2022-10-22T14:33:14;6.37;;;3.27;;
1977;SDS011;989;53.016;8.346;2022-10-22T14:35:42;7.63;;;3.63;;
1977;SDS011;989;53.016;8.346;2022-10-22T14:38:08;6.23;;;3.50;;
1977;SDS011;989;53.016;8.346;2022-10-22T14:40:34;8.37;;;3.60;;
1977;SDS011;989;53.016;8.346;2022-10-22T14:43:02;7.23;;;3.77;;
1977;SDS011;989;53.016;8.346;2022-10-22T14:45:29;6.30;;;3.57;;
1977;SDS011;989;53.016;8.346;2022-10-22T14:47:54;11.37;;;4.47;;
1977;SDS011;989;53.016;8.346;2022-10-22T14:50:21;9.90;;;4.57;;
1977;SDS011;989;53.016;8.346;2022-10-22T14:52:48;8.30;;;4.07;;
1977;SDS011;989;53.016;8.346;2022-10-22T14:55:15;7.20;;;4.43;;
1977;SDS011;989;53.016;8.346;2022-10-22T14:57:42;10.43;;;4.80;;
1977;SDS011;989;53.016;8.346;2022-10-22T15:00:10;10.20;;;4.73;;
1977;SDS011;989;53.016;8.346;2022-10-22T15:02:41;12.57;;;3.63;;
1977;SDS011;989;53.016;8.346;2022-10-22T15:05:08;10.50;;;5.07;;
1977;SDS011;989;53.016;8.346;2022-10-22T15:07:34;5.30;;;3.80;;
1977;SDS011;989;53.016;8.346;2022-10-22T15:10:00;13.50;;;4.87;;
1977;SDS011;989;53.016;8.346;2022-10-22T15:12:26;13.17;;;4.40;;
1977;SDS011;989;53.016;8.346;2022-10-22T15:14:52;15.60;;;5.47;;
1977;SDS011;989;53.016;8.346;2022-10-22T15:17:18;16.30;;;6.10;;
1977;SDS011;989;53.016;8.346;2022-10-22T15:19:43;9.60;;;4.33;;
1977;SDS011;989;53.016;8.346;2022-10-22T15:22:10;12.20;;;5.00;;
1977;SDS011;989;53.016;8.346;2022-10-22T15:24:37;17.10;;;5.03;;
1977;SDS011;989;53.016;8.346;2022-10-22T15:27:02;12.77;;;4.67;;
1977;SDS011;989;53.016;8.346;2022-10-22T15:29:29;9.07;;;4.30;;
1977;SDS011;989;53.016;8.346;2022-10-22T15:31:56;11.60;;;4.70;;
1977;SDS011;989;53.016;8.346;2022-10-22T15:34:25;13.30;;;4.80;;
1977;SDS011;989;53.016;8.346;2022-10-22T15:36:54;9.53;;;4.77;;
1977;SDS011;989;53.016;8.346;2022-10-22T15:39:22;22.63;;;5.47;;
1977;SDS011;989;53.016;8.346;2022-10-22T15:41:49;19.37;;;5.80;;
1977;SDS011;989;53.016;8.346;2022-10-22T15:44:23;14.07;;;4.93;;
1977;SDS011;989;53.016;8.346;2022-10-22T15:46:51;12.80;;;4.60;;
1977;SDS011;989;53.016;8.346;2022-10-22T15:49:19;15.93;;;4.50;;
1977;SDS011;989;53.016;8.346;2022-10-22T15:51:45;10.93;;;4.70;;
1977;SDS011;989;53.016;8.346;2022-10-22T15:54:16;14.70;;;5.00;;
1977;SDS011;989;53.016;8.346;2022-10-22T15:56:47;11.87;;;5.80;;
1977;SDS011;989;53.016;8.346;2022-10-22T15:59:14;14.90;;;5.47;;
1977;SDS011;989;53.016;8.346;2022-10-22T16:01:40;11.10;;;6.10;;
1977;SDS011;989;53.016;8.346;2022-10-22T16:04:07;10.93;;;4.80;;
1977;SDS011;989;53.016;8.346;2022-10-22T16:06:38;15.67;;;6.00;;
1977;SDS011;989;53.016;8.346;2022-10-22T16:09:11;13.73;;;6.07;;
1977;SDS011;989;53.016;8.346;2022-10-22T16:11:43;13.87;;;5.07;;
1977;SDS011;989;53.016;8.346;2022-10-22T16:14:10;8.00;;;4.40;;
1977;SDS011;989;53.016;8.346;2022-10-22T16:16:41;16.30;;;4.73;;
1977;SDS011;989;53.016;8.346;2022-10-22T16:19:10;11.70;;;4.67;;
1977;SDS011;989;53.016;8.346;2022-10-22T16:21:38;9.07;;;4.90;;
1977;SDS011;989;53.016;8.346;2022-10-22T16:24:05;10.90;;;4.83;;
1977;SDS011;989;53.016;8.346;2022-10-22T16:26:32;10.43;;;5.23;;
1977;SDS011;989;53.016;8.346;2022-10-22T16:28:58;10.73;;;4.83;;
1977;SDS011;989;53.016;8.346;2022-10-22T16:31:24;14.47;;;5.50;;
1977;SDS011;989;53.016;8.346;2022-10-22T16:33:49;19.60;;;5.30;;
1977;SDS011;989;53.016;8.346;2022-10-22T16:36:16;10.77;;;5.33;;
1977;SDS011;989;53.016;8.346;2022-10-22T16:38:43;12.67;;;4.87;;
1977;SDS011;989;53.016;8.346;2022-10-22T16:41:20;10.33;;;4.37;;
1977;SDS011;989;53.016;8.346;2022-10-22T16:43:48;24.33;;;10.40;;
1977;SDS011;989;53.016;8.346;2022-10-22T16:46:17;18.40;;;5.83;;
1977;SDS011;989;53.016;8.346;2022-10-22T16:48:45;20.60;;;5.53;;
1977;SDS011;989;53.016;8.346;2022-10-22T16:51:13;22.00;;;6.10;;
1977;SDS011;989;53.016;8.346;2022-10-22T16:53:43;12.93;;;5.83;;
1977;SDS011;989;53.016;8.346;2022-10-22T16:56:09;10.43;;;6.00;;
1977;SDS011;989;53.016;8.346;2022-10-22T16:58:37;13.33;;;6.27;;
1977;SDS011;989;53.016;8.346;2022-10-22T17:01:08;14.70;;;7.00;;
1977;SDS011;989;53.016;8.346;2022-10-22T17:03:34;12.27;;;6.70;;
1977;SDS011;989;53.016;8.346;2022-10-22T17:06:00;14.97;;;5.53;;
1977;SDS011;989;53.016;8.346;2022-10-22T17:08:28;14.87;;;6.27;;